createdAt,value
2023-12-21T00:00:55.088Z,100.00
2023-12-21T00:03:21.589Z,100.00
2023-12-21T00:05:48.040Z,100.00
2023-12-21T00:08:16.989Z,100.00
2023-12-21T00:10:43.492Z,100.00
2023-12-21T00:13:09.960Z,100.00
2023-12-21T00:15:36.456Z,100.00
2023-12-21T00:18:03.052Z,100.00
2023-12-21T00:20:30.112Z,100.00
2023-12-21T00:22:56.999Z,100.00
2023-12-21T00:25:23.473Z,100.00
2023-12-21T00:27:50.087Z,100.00
2023-12-21T00:30:16.798Z,100.00
2023-12-21T00:32:45.871Z,100.00
2023-12-21T00:35:12.406Z,100.00
2023-12-21T00:37:39.094Z,100.00
2023-12-21T00:40:06.364Z,100.00
2023-12-21T00:42:33.553Z,100.00
2023-12-21T00:45:00.054Z,100.00
2023-12-21T00:47:26.439Z,100.00
2023-12-21T00:49:52.867Z,100.00
2023-12-21T00:52:19.387Z,100.00
2023-12-21T00:54:45.811Z,100.00
2023-12-21T00:57:12.293Z,100.00
2023-12-21T00:59:38.802Z,100.00
2023-12-21T01:02:05.354Z,100.00
2023-12-21T01:04:31.841Z,100.00
2023-12-21T01:06:58.284Z,100.00
2023-12-21T01:09:24.741Z,100.00
2023-12-21T01:11:51.117Z,100.00
2023-12-21T01:14:18.256Z,100.00
2023-12-21T01:16:44.745Z,100.00
2023-12-21T01:19:13.538Z,100.00
2023-12-21T01:21:40.128Z,100.00
2023-12-21T01:24:07.175Z,100.00
2023-12-21T01:26:33.602Z,100.00
2023-12-21T01:28:59.986Z,100.00
2023-12-21T01:31:28.844Z,100.00
2023-12-21T01:33:55.347Z,100.00
2023-12-21T01:36:21.824Z,100.00
2023-12-21T01:38:48.299Z,100.00
2023-12-21T01:41:17.353Z,100.00
2023-12-21T01:43:43.967Z,100.00
2023-12-21T01:46:10.456Z,100.00
2023-12-21T01:48:38.120Z,100.00
2023-12-21T01:51:05.687Z,100.00
2023-12-21T01:53:33.670Z,100.00
2023-12-21T01:56:01.416Z,100.00
2023-12-21T01:58:27.985Z,100.00
2023-12-21T02:00:58.115Z,100.00
2023-12-21T02:03:26.397Z,100.00
2023-12-21T02:05:52.901Z,100.00
2023-12-21T02:08:19.707Z,100.00
2023-12-21T02:10:48.137Z,100.00
2023-12-21T02:13:16.657Z,100.00
2023-12-21T02:15:43.184Z,100.00
2023-12-21T02:18:11.253Z,100.00
2023-12-21T02:20:38.062Z,100.00
2023-12-21T02:23:08.691Z,100.00
2023-12-21T02:25:36.275Z,100.00
2023-12-21T02:28:03.591Z,100.00
2023-12-21T02:30:30.085Z,100.00
2023-12-21T02:32:57.697Z,100.00
2023-12-21T02:35:24.290Z,100.00
2023-12-21T02:37:50.946Z,100.00
2023-12-21T02:40:20.118Z,100.00
2023-12-21T02:42:46.835Z,100.00
2023-12-21T02:45:13.484Z,100.00
2023-12-21T02:47:39.873Z,100.00
2023-12-21T02:50:08.276Z,100.00
2023-12-21T02:52:34.968Z,100.00
2023-12-21T02:55:01.541Z,100.00
2023-12-21T02:57:27.978Z,100.00
2023-12-21T02:59:54.390Z,100.00
2023-12-21T03:02:20.889Z,100.00
2023-12-21T03:04:47.382Z,100.00
2023-12-21T03:07:16.074Z,100.00
2023-12-21T03:09:42.560Z,100.00
2023-12-21T03:12:09.272Z,100.00
2023-12-21T03:14:35.712Z,100.00
2023-12-21T03:17:02.179Z,100.00
2023-12-21T03:19:28.749Z,100.00
2023-12-21T03:21:55.268Z,100.00
2023-12-21T03:24:21.655Z,100.00
2023-12-21T03:26:48.071Z,100.00
2023-12-21T03:29:16.025Z,100.00
2023-12-21T03:31:42.627Z,100.00
2023-12-21T03:34:09.169Z,100.00
2023-12-21T03:36:35.781Z,100.00
2023-12-21T03:39:02.372Z,100.00
2023-12-21T03:41:28.758Z,100.00
2023-12-21T03:43:55.158Z,100.00
2023-12-21T03:46:21.796Z,100.00
2023-12-21T03:48:48.232Z,100.00
2023-12-21T03:51:14.709Z,100.00
2023-12-21T03:53:41.157Z,100.00
2023-12-21T03:56:07.948Z,100.00
2023-12-21T03:58:34.389Z,100.00
2023-12-21T04:01:00.995Z,100.00
2023-12-21T04:03:27.967Z,100.00
2023-12-21T04:05:54.443Z,100.00
2023-12-21T04:08:20.937Z,100.00
2023-12-21T04:10:50.662Z,100.00
2023-12-21T04:13:17.151Z,100.00
2023-12-21T04:15:43.858Z,100.00
2023-12-21T04:18:10.600Z,100.00
2023-12-21T04:20:37.140Z,100.00
2023-12-21T04:23:03.686Z,100.00
2023-12-21T04:25:30.121Z,100.00
2023-12-21T04:27:56.819Z,100.00
2023-12-21T04:30:23.598Z,100.00
2023-12-21T04:32:50.393Z,100.00
2023-12-21T04:35:17.138Z,100.00
2023-12-21T04:37:43.647Z,100.00
2023-12-21T04:40:10.952Z,100.00
2023-12-21T04:42:37.656Z,100.00
2023-12-21T04:45:04.525Z,100.00
2023-12-21T04:47:30.888Z,100.00
2023-12-21T04:49:58.486Z,100.00
2023-12-21T04:52:25.036Z,100.00
2023-12-21T04:54:51.453Z,100.00
2023-12-21T04:57:21.039Z,100.00
2023-12-21T04:59:48.640Z,100.00
2023-12-21T05:02:15.015Z,100.00
2023-12-21T05:04:41.550Z,100.00
2023-12-21T05:07:08.037Z,100.00
2023-12-21T05:09:34.425Z,100.00
2023-12-21T05:12:00.863Z,100.00
2023-12-21T05:14:27.299Z,100.00
2023-12-21T05:16:53.906Z,100.00
2023-12-21T05:19:20.390Z,100.00
2023-12-21T05:21:46.948Z,100.00
2023-12-21T05:24:13.422Z,100.00
2023-12-21T05:26:39.779Z,100.00
2023-12-21T05:29:06.210Z,100.00
2023-12-21T05:31:32.683Z,100.00
2023-12-21T05:33:59.183Z,100.00
2023-12-21T05:36:26.319Z,100.00
2023-12-21T05:38:54.255Z,100.00
2023-12-21T05:41:20.784Z,100.00
2023-12-21T05:43:47.484Z,100.00
2023-12-21T05:46:13.978Z,100.00
2023-12-21T05:48:43.348Z,100.00
2023-12-21T05:51:09.850Z,100.00
2023-12-21T05:53:36.295Z,100.00
2023-12-21T05:56:02.757Z,100.00
2023-12-21T05:58:29.394Z,100.00
2023-12-21T06:00:55.868Z,100.00
2023-12-21T06:03:22.423Z,100.00
2023-12-21T06:05:49.939Z,100.00
2023-12-21T06:08:16.661Z,100.00
2023-12-21T06:10:43.143Z,100.00
2023-12-21T06:13:09.658Z,100.00
2023-12-21T06:15:36.074Z,100.00
2023-12-21T06:18:02.500Z,100.00
2023-12-21T06:20:28.927Z,100.00
2023-12-21T06:22:55.425Z,100.00
2023-12-21T06:25:21.878Z,100.00
2023-12-21T06:27:48.376Z,100.00
2023-12-21T06:30:14.822Z,100.00
2023-12-21T06:32:41.293Z,100.00
2023-12-21T06:35:08.213Z,100.00
2023-12-21T06:37:34.708Z,100.00
2023-12-21T06:40:01.251Z,100.00
2023-12-21T06:42:27.738Z,100.00
2023-12-21T06:44:54.125Z,100.00
2023-12-21T06:47:20.572Z,100.00
2023-12-21T06:49:47.265Z,100.00
2023-12-21T06:52:13.682Z,100.00
2023-12-21T06:54:40.904Z,100.00
2023-12-21T06:57:08.455Z,100.00
2023-12-21T06:59:34.908Z,100.00
2023-12-21T07:02:01.676Z,100.00
2023-12-21T07:04:28.185Z,100.00
2023-12-21T07:06:54.758Z,100.00
2023-12-21T07:09:21.161Z,100.00
2023-12-21T07:11:49.195Z,100.00
2023-12-21T07:14:15.979Z,100.00
2023-12-21T07:16:44.681Z,100.00
2023-12-21T07:19:11.189Z,100.00
2023-12-21T07:21:37.845Z,100.00
2023-12-21T07:24:04.809Z,100.00
2023-12-21T07:26:31.467Z,100.00
2023-12-21T07:28:57.820Z,100.00
2023-12-21T07:31:24.281Z,100.00
2023-12-21T07:33:50.879Z,100.00
2023-12-21T07:36:17.457Z,100.00
2023-12-21T07:38:44.340Z,100.00
2023-12-21T07:41:10.846Z,100.00
2023-12-21T07:43:37.422Z,100.00
2023-12-21T07:46:05.613Z,100.00
2023-12-21T07:48:33.058Z,100.00
2023-12-21T07:50:59.593Z,100.00
2023-12-21T07:53:26.121Z,100.00
2023-12-21T07:55:52.570Z,100.00
2023-12-21T07:58:18.989Z,100.00
2023-12-21T08:00:45.435Z,100.00
2023-12-21T08:03:11.875Z,100.00
2023-12-21T08:05:39.610Z,100.00
2023-12-21T08:08:06.485Z,100.00
2023-12-21T08:10:32.982Z,100.00
2023-12-21T08:12:59.650Z,100.00
2023-12-21T08:15:26.152Z,100.00
2023-12-21T08:17:52.642Z,100.00
2023-12-21T08:20:19.315Z,100.00
2023-12-21T08:22:46.198Z,100.00
2023-12-21T08:25:13.204Z,100.00
2023-12-21T08:27:39.855Z,100.00
2023-12-21T08:30:06.992Z,100.00
2023-12-21T08:32:33.475Z,100.00
2023-12-21T08:35:00.774Z,100.00
2023-12-21T08:37:27.363Z,100.00
2023-12-21T08:39:54.744Z,100.00
2023-12-21T08:42:21.185Z,100.00
2023-12-21T08:44:48.901Z,100.00
2023-12-21T08:47:15.649Z,100.00
2023-12-21T08:49:42.169Z,100.00
2023-12-21T08:52:08.666Z,100.00
2023-12-21T08:54:35.329Z,100.00
2023-12-21T08:57:01.718Z,100.00
2023-12-21T08:59:30.772Z,100.00
2023-12-21T09:01:57.462Z,100.00
2023-12-21T09:04:24.033Z,100.00
2023-12-21T09:06:53.409Z,100.00
2023-12-21T09:09:19.854Z,100.00
2023-12-21T09:11:46.841Z,100.00
2023-12-21T09:14:13.389Z,100.00
2023-12-21T09:16:39.923Z,100.00
2023-12-21T09:19:06.654Z,100.00
2023-12-21T09:21:34.307Z,100.00
2023-12-21T09:24:00.727Z,100.00
2023-12-21T09:26:27.314Z,100.00
2023-12-21T09:28:53.813Z,100.00
2023-12-21T09:31:20.296Z,100.00
2023-12-21T09:33:46.993Z,100.00
2023-12-21T09:36:16.488Z,100.00
2023-12-21T09:38:42.941Z,100.00
2023-12-21T09:41:09.468Z,100.00
2023-12-21T09:43:38.970Z,100.00
2023-12-21T09:46:05.957Z,100.00
2023-12-21T09:48:38.336Z,100.00
2023-12-21T09:51:05.063Z,100.00
2023-12-21T09:53:34.282Z,100.00
2023-12-21T09:56:01.415Z,100.00
2023-12-21T09:58:28.073Z,100.00
2023-12-21T10:00:54.656Z,100.00
2023-12-21T10:03:23.523Z,100.00
2023-12-21T10:05:50.020Z,100.00
2023-12-21T10:08:16.937Z,100.00
2023-12-21T10:10:43.459Z,100.00
2023-12-21T10:13:09.916Z,100.00
2023-12-21T10:15:37.610Z,100.00
2023-12-21T10:18:09.988Z,100.00
2023-12-21T10:20:37.027Z,100.00
2023-12-21T10:23:03.736Z,100.00
2023-12-21T10:25:30.282Z,100.00
2023-12-21T10:27:57.681Z,100.00
2023-12-21T10:30:25.156Z,100.00
2023-12-21T10:32:57.609Z,100.00
2023-12-21T10:35:25.374Z,100.00
2023-12-21T10:37:52.366Z,100.00
2023-12-21T10:40:18.943Z,100.00
2023-12-21T10:42:49.516Z,100.00
2023-12-21T10:45:29.746Z,100.00
2023-12-21T10:48:06.945Z,100.00
2023-12-21T10:50:35.111Z,100.00
2023-12-21T10:53:02.609Z,100.00
2023-12-21T10:55:31.528Z,100.00
2023-12-21T10:58:00.217Z,100.00
2023-12-21T11:00:27.532Z,100.00
2023-12-21T11:02:58.743Z,100.00
2023-12-21T11:05:26.405Z,100.00
2023-12-21T11:07:54.856Z,100.00
2023-12-21T11:10:23.048Z,100.00
2023-12-21T11:12:50.127Z,100.00
2023-12-21T11:15:18.397Z,100.00
2023-12-21T11:17:49.723Z,100.00
2023-12-21T11:20:22.303Z,100.00
2023-12-21T11:22:49.184Z,100.00
2023-12-21T11:25:22.250Z,100.00
2023-12-21T11:27:48.677Z,100.00
2023-12-21T11:30:15.425Z,100.00
2023-12-21T11:32:43.886Z,100.00
2023-12-21T11:35:21.251Z,100.00
2023-12-21T11:37:55.506Z,100.00
2023-12-21T11:40:25.703Z,100.00
2023-12-21T11:42:54.697Z,100.00
2023-12-21T11:45:25.801Z,100.00
2023-12-21T11:47:56.640Z,100.00
2023-12-21T11:50:24.840Z,100.00
2023-12-21T11:53:01.343Z,100.00
2023-12-21T11:55:39.234Z,100.00
2023-12-21T11:58:24.677Z,100.00
2023-12-21T12:00:52.072Z,100.00
2023-12-21T12:03:19.844Z,100.00
2023-12-21T12:05:47.012Z,100.00
2023-12-21T12:08:20.028Z,100.00
2023-12-21T12:10:46.489Z,100.00
2023-12-21T12:13:17.381Z,100.00
2023-12-21T12:15:47.005Z,100.00
2023-12-21T12:18:13.766Z,100.00
2023-12-21T12:20:47.461Z,100.00
2023-12-21T12:23:14.122Z,100.00
2023-12-21T12:25:47.368Z,100.00
2023-12-21T12:28:16.201Z,100.00
2023-12-21T12:30:45.608Z,100.00
2023-12-21T12:33:13.571Z,100.00
2023-12-21T12:35:40.365Z,100.00
2023-12-21T12:38:08.403Z,100.00
2023-12-21T12:40:35.876Z,100.00
2023-12-21T12:43:03.086Z,100.00
2023-12-21T12:45:30.478Z,100.00
2023-12-21T12:47:57.520Z,100.00
2023-12-21T12:50:24.919Z,100.00
2023-12-21T12:52:51.440Z,100.00
2023-12-21T12:55:20.267Z,100.00
2023-12-21T12:57:47.693Z,100.00
2023-12-21T13:00:19.111Z,100.00
2023-12-21T13:02:45.922Z,100.00
2023-12-21T13:05:13.041Z,100.00
2023-12-21T13:07:39.838Z,100.00
2023-12-21T13:10:09.861Z,100.00
2023-12-21T13:12:37.611Z,100.00
2023-12-21T13:15:05.756Z,100.00
2023-12-21T13:17:32.205Z,100.00
2023-12-21T13:19:58.693Z,100.00
2023-12-21T13:22:25.264Z,100.00
2023-12-21T13:24:51.806Z,100.00
2023-12-21T13:27:18.248Z,100.00
2023-12-21T13:29:44.866Z,100.00
2023-12-21T13:32:12.147Z,100.00
2023-12-21T13:34:38.862Z,100.00
2023-12-21T13:37:05.369Z,100.00
2023-12-21T13:39:32.028Z,100.00
2023-12-21T13:41:58.751Z,100.00
2023-12-21T13:44:29.373Z,100.00
2023-12-21T13:46:58.890Z,100.00
2023-12-21T13:49:25.757Z,100.00
2023-12-21T13:51:54.292Z,100.00
2023-12-21T13:54:21.617Z,100.00
2023-12-21T13:56:52.916Z,100.00
2023-12-21T13:59:22.312Z,100.00
2023-12-21T14:01:48.889Z,100.00
2023-12-21T14:04:15.710Z,100.00
2023-12-21T14:06:42.242Z,100.00
2023-12-21T14:09:08.707Z,100.00
2023-12-21T14:11:35.190Z,100.00
2023-12-21T14:14:01.616Z,100.00
2023-12-21T14:16:28.226Z,100.00
2023-12-21T14:18:54.686Z,100.00
2023-12-21T14:21:21.093Z,100.00
2023-12-21T14:23:47.434Z,100.00
2023-12-21T14:26:14.062Z,100.00
2023-12-21T14:28:46.879Z,100.00
2023-12-21T14:31:17.964Z,100.00
2023-12-21T14:33:44.474Z,100.00
2023-12-21T14:36:10.970Z,100.00
2023-12-21T14:38:37.449Z,100.00
2023-12-21T14:41:04.010Z,100.00
2023-12-21T14:43:30.537Z,100.00
2023-12-21T14:45:56.977Z,100.00
2023-12-21T14:48:25.818Z,100.00
2023-12-21T14:50:52.516Z,99.71
2023-12-21T14:53:18.965Z,100.00
2023-12-21T14:55:45.674Z,100.00
2023-12-21T14:58:14.070Z,100.00
2023-12-21T15:00:40.601Z,99.70
2023-12-21T15:03:07.114Z,99.91
2023-12-21T15:05:33.640Z,98.08
2023-12-21T15:08:02.935Z,98.05
2023-12-21T15:10:30.110Z,97.14
2023-12-21T15:12:56.589Z,96.57
2023-12-21T15:15:23.239Z,96.61
2023-12-21T15:17:50.021Z,95.74
2023-12-21T15:20:19.167Z,94.66
2023-12-21T15:22:45.750Z,95.39
2023-12-21T15:25:12.279Z,94.50
2023-12-21T15:27:38.723Z,95.22
2023-12-21T15:30:05.788Z,94.43
2023-12-21T15:32:32.361Z,91.93
2023-12-21T15:34:58.918Z,94.71
2023-12-21T15:37:25.427Z,92.87
2023-12-21T15:39:52.177Z,91.77
2023-12-21T15:42:18.735Z,89.37
2023-12-21T15:44:45.265Z,89.86
2023-12-21T15:47:11.664Z,89.11
2023-12-21T15:49:38.186Z,88.29
2023-12-21T15:52:06.927Z,88.89
2023-12-21T15:54:34.796Z,87.80
2023-12-21T15:57:01.323Z,88.00
2023-12-21T15:59:27.724Z,89.08
2023-12-21T16:01:56.562Z,87.54
2023-12-21T16:04:23.384Z,86.67
2023-12-21T16:06:52.417Z,86.72
2023-12-21T16:09:19.274Z,84.95
2023-12-21T16:11:48.057Z,86.43
2023-12-21T16:14:14.548Z,85.10
2023-12-21T16:16:41.003Z,88.73
2023-12-21T16:19:07.698Z,96.64
2023-12-21T16:21:34.271Z,97.32
2023-12-21T16:24:00.706Z,97.37
2023-12-21T16:26:27.119Z,98.10
2023-12-21T16:28:53.635Z,98.06
2023-12-21T16:31:20.399Z,98.57
2023-12-21T16:33:47.014Z,96.48
2023-12-21T16:36:13.547Z,95.07
2023-12-21T16:38:39.966Z,95.16
2023-12-21T16:41:06.406Z,97.06
2023-12-21T16:43:33.120Z,97.37
2023-12-21T16:46:01.430Z,98.21
2023-12-21T16:48:27.916Z,100.00
2023-12-21T16:50:54.332Z,100.00
2023-12-21T16:53:20.848Z,100.00
2023-12-21T16:55:47.352Z,100.00
2023-12-21T16:58:13.998Z,100.00
2023-12-21T17:00:42.450Z,100.00
2023-12-21T17:03:08.896Z,100.00
2023-12-21T17:05:35.631Z,100.00
2023-12-21T17:08:02.179Z,100.00
2023-12-21T17:10:28.631Z,100.00
2023-12-21T17:12:55.093Z,100.00
2023-12-21T17:15:21.694Z,100.00
2023-12-21T17:17:48.561Z,100.00
2023-12-21T17:20:15.658Z,100.00
2023-12-21T17:22:42.309Z,100.00
2023-12-21T17:25:08.974Z,100.00
2023-12-21T17:27:35.388Z,100.00
2023-12-21T17:30:01.911Z,100.00
2023-12-21T17:32:28.386Z,100.00
2023-12-21T17:34:54.909Z,100.00
2023-12-21T17:37:21.530Z,100.00
2023-12-21T17:39:48.515Z,100.00
2023-12-21T17:42:15.028Z,100.00
2023-12-21T17:44:41.727Z,100.00
2023-12-21T17:47:08.235Z,100.00
2023-12-21T17:49:36.115Z,100.00
2023-12-21T17:52:02.668Z,100.00
2023-12-21T17:54:29.108Z,100.00
2023-12-21T17:56:56.710Z,100.00
2023-12-21T17:59:23.185Z,100.00
2023-12-21T18:01:49.735Z,100.00
2023-12-21T18:04:16.390Z,100.00
2023-12-21T18:06:43.053Z,100.00
2023-12-21T18:09:09.747Z,100.00
2023-12-21T18:11:36.460Z,100.00
2023-12-21T18:14:03.037Z,100.00
2023-12-21T18:16:30.642Z,100.00
2023-12-21T18:18:57.160Z,100.00
2023-12-21T18:21:24.496Z,100.00
2023-12-21T18:23:52.421Z,100.00
2023-12-21T18:26:18.841Z,100.00
2023-12-21T18:28:45.292Z,100.00
2023-12-21T18:31:11.883Z,100.00
2023-12-21T18:33:38.419Z,100.00
2023-12-21T18:36:05.331Z,100.00
2023-12-21T18:38:32.859Z,100.00
2023-12-21T18:40:59.362Z,100.00
2023-12-21T18:43:25.964Z,100.00
2023-12-21T18:45:53.044Z,100.00
2023-12-21T18:48:19.823Z,100.00
2023-12-21T18:50:46.878Z,100.00
2023-12-21T18:53:13.807Z,100.00
2023-12-21T18:55:40.381Z,100.00
2023-12-21T18:58:09.960Z,100.00
2023-12-21T19:00:36.999Z,100.00
2023-12-21T19:03:03.952Z,100.00
2023-12-21T19:05:30.756Z,100.00
2023-12-21T19:07:57.467Z,97.86
2023-12-21T19:10:24.140Z,97.83
2023-12-21T19:12:50.906Z,97.08
2023-12-21T19:15:17.391Z,97.88
2023-12-21T19:17:43.964Z,95.16
2023-12-21T19:20:12.935Z,95.04
2023-12-21T19:22:39.445Z,95.82
2023-12-21T19:25:06.377Z,97.74
2023-12-21T19:27:34.188Z,97.05
2023-12-21T19:30:00.697Z,96.25
2023-12-21T19:32:27.214Z,95.13
2023-12-21T19:34:55.024Z,95.54
2023-12-21T19:37:21.615Z,95.11
2023-12-21T19:39:48.525Z,95.91
2023-12-21T19:42:14.952Z,94.30
2023-12-21T19:44:41.326Z,94.39
2023-12-21T19:47:07.780Z,95.98
2023-12-21T19:49:36.695Z,95.46
2023-12-21T19:52:03.581Z,96.75
2023-12-21T19:54:30.172Z,95.09
2023-12-21T19:56:56.585Z,95.72
2023-12-21T19:59:23.052Z,94.11
2023-12-21T20:01:50.261Z,95.50
2023-12-21T20:04:17.826Z,95.16
2023-12-21T20:06:45.232Z,95.52
2023-12-21T20:09:12.520Z,95.79
2023-12-21T20:11:39.221Z,94.71
2023-12-21T20:14:05.835Z,95.43
2023-12-21T20:16:32.270Z,95.24
2023-12-21T20:18:58.892Z,94.49
2023-12-21T20:21:25.634Z,95.59
2023-12-21T20:23:52.356Z,95.75
2023-12-21T20:26:18.876Z,96.34
2023-12-21T20:28:45.454Z,97.28
2023-12-21T20:31:12.225Z,97.06
2023-12-21T20:33:38.844Z,98.48
2023-12-21T20:36:05.535Z,97.15
2023-12-21T20:38:34.725Z,98.15
2023-12-21T20:41:01.787Z,99.36
2023-12-21T20:43:28.279Z,99.20
2023-12-21T20:45:57.242Z,99.66
2023-12-21T20:48:23.830Z,99.10
2023-12-21T20:50:50.305Z,99.16
2023-12-21T20:53:16.790Z,97.54
2023-12-21T20:55:43.270Z,97.26
2023-12-21T20:58:10.923Z,95.56
2023-12-21T21:00:37.577Z,95.47
2023-12-21T21:03:04.998Z,95.32
2023-12-21T21:05:31.611Z,96.46
2023-12-21T21:07:59.190Z,95.46
2023-12-21T21:10:25.717Z,96.12
2023-12-21T21:12:52.228Z,96.60
2023-12-21T21:15:18.667Z,97.23
2023-12-21T21:17:45.362Z,100.00
2023-12-21T21:20:12.371Z,100.00
2023-12-21T21:22:38.877Z,100.00
2023-12-21T21:25:08.582Z,100.00
2023-12-21T21:27:35.499Z,100.00
2023-12-21T21:30:03.349Z,100.00
2023-12-21T21:32:29.857Z,100.00
2023-12-21T21:34:56.422Z,100.00
2023-12-21T21:37:23.025Z,100.00
2023-12-21T21:39:49.582Z,100.00
2023-12-21T21:42:16.098Z,100.00
2023-12-21T21:44:42.669Z,100.00
2023-12-21T21:47:09.034Z,100.00
2023-12-21T21:49:35.639Z,100.00
2023-12-21T21:52:02.208Z,100.00
2023-12-21T21:54:30.991Z,100.00
2023-12-21T21:56:57.494Z,100.00
2023-12-21T21:59:23.854Z,100.00
2023-12-21T22:01:50.412Z,100.00
2023-12-21T22:04:17.143Z,100.00
2023-12-21T22:06:44.859Z,100.00
2023-12-21T22:09:11.241Z,100.00
2023-12-21T22:11:37.683Z,100.00
2023-12-21T22:14:04.162Z,100.00
2023-12-21T22:16:30.633Z,100.00
2023-12-21T22:18:57.147Z,100.00
2023-12-21T22:21:23.906Z,100.00
2023-12-21T22:23:50.338Z,100.00
2023-12-21T22:26:23.140Z,100.00
2023-12-21T22:28:49.776Z,100.00
2023-12-21T22:31:16.744Z,100.00
2023-12-21T22:33:43.275Z,100.00
2023-12-21T22:36:09.766Z,100.00
2023-12-21T22:38:37.026Z,100.00
2023-12-21T22:41:05.006Z,100.00
2023-12-21T22:43:39.689Z,100.00
2023-12-21T22:46:09.744Z,100.00
2023-12-21T22:48:36.350Z,100.00
2023-12-21T22:51:04.311Z,100.00
2023-12-21T22:53:30.701Z,100.00
2023-12-21T22:55:57.289Z,100.00
2023-12-21T22:58:24.075Z,100.00
2023-12-21T23:00:50.497Z,100.00
2023-12-21T23:03:16.964Z,100.00
2023-12-21T23:05:43.485Z,100.00
2023-12-21T23:08:09.965Z,100.00
2023-12-21T23:10:36.513Z,100.00
2023-12-21T23:13:03.717Z,100.00
2023-12-21T23:15:30.529Z,100.00
2023-12-21T23:17:57.022Z,100.00
2023-12-21T23:20:23.780Z,100.00
2023-12-21T23:22:50.989Z,100.00
2023-12-21T23:25:17.758Z,100.00
2023-12-21T23:27:44.300Z,100.00
2023-12-21T23:30:11.447Z,100.00
2023-12-21T23:32:37.965Z,100.00
2023-12-21T23:35:16.076Z,100.00
2023-12-21T23:37:44.956Z,100.00
2023-12-21T23:40:12.560Z,100.00
2023-12-21T23:42:41.617Z,100.00
2023-12-21T23:45:08.818Z,100.00
2023-12-21T23:47:35.892Z,100.00
2023-12-21T23:50:02.749Z,100.00
2023-12-21T23:52:29.441Z,100.00
2023-12-21T23:54:56.160Z,100.00
2023-12-21T23:57:22.597Z,100.00
2023-12-21T23:59:49.029Z,100.00
